Time;durP1;ratioP1;P1;durP2;ratioP2;P2;SDS_P1;SDS_P2;PMS_P1;PMS_P2;Temp;Humidity;BMP_temperature;BMP_pressure;BME280_temperature;BME280_humidity;BME280_pressure;Samples;Min_cycle;Max_cycle;Signal;HPM_P1;HPM_P2
2022/01/10 00:01:28;;;;;;;20.60;13.70;;;6.70;99.90;;;;;;5054483;28;20524;-46
2022/01/10 00:03:56;;;;;;;27.03;16.90;;;6.70;99.90;;;;;;5054397;28;20518;-47
2022/01/10 00:06:22;;;;;;;24.73;15.70;;;6.70;99.90;;;;;;5054566;28;20922;-47
2022/01/10 00:08:49;;;;;;;32.97;17.07;;;6.70;99.90;;;;;;5035988;28;20479;-47
2022/01/10 00:11:16;;;;;;;29.93;15.00;;;6.70;99.90;;;;;;5054527;28;20921;-47
2022/01/10 00:13:42;;;;;;;19.03;13.87;;;6.70;99.90;;;;;;5054405;28;20469;-46
2022/01/10 00:16:09;;;;;;;26.37;14.80;;;6.70;99.90;;;;;;5054824;28;20432;-47
2022/01/10 00:18:35;;;;;;;26.90;14.93;;;6.70;99.90;;;;;;5053805;28;20970;-46
2022/01/10 00:21:03;;;;;;;23.50;12.73;;;6.70;99.90;;;;;;5054267;28;20987;-46
2022/01/10 00:23:30;;;;;;;24.70;15.47;;;6.70;99.90;;;;;;5054219;28;20445;-46
2022/01/10 00:25:56;;;;;;;24.17;13.33;;;6.70;99.90;;;;;;5054355;28;20929;-47
2022/01/10 00:28:23;;;;;;;22.37;14.77;;;6.70;99.90;;;;;;5053753;28;21030;-46
2022/01/10 00:30:49;;;;;;;29.60;15.73;;;6.80;99.90;;;;;;5054203;28;20410;-47
2022/01/10 00:33:16;;;;;;;25.27;14.93;;;6.80;99.90;;;;;;5035785;28;20484;-46
2022/01/10 00:35:43;;;;;;;22.07;15.23;;;6.80;99.90;;;;;;5054224;28;20935;-46
2022/01/10 00:38:11;;;;;;;33.40;17.00;;;6.80;99.90;;;;;;5035259;28;20479;-46
2022/01/10 00:40:39;;;;;;;28.50;17.07;;;6.80;99.90;;;;;;5054634;28;20438;-46
2022/01/10 00:43:08;;;;;;;19.50;15.13;;;6.80;99.90;;;;;;5053874;28;20449;-47
2022/01/10 00:45:35;;;;;;;22.53;15.37;;;6.80;99.90;;;;;;5053997;28;20908;-47
2022/01/10 00:48:01;;;;;;;30.30;17.50;;;6.80;99.90;;;;;;5035434;28;20472;-47
2022/01/10 00:50:29;;;;;;;26.87;15.57;;;6.80;99.90;;;;;;5053943;28;20426;-46
2022/01/10 00:52:57;;;;;;;21.50;16.70;;;6.70;99.90;;;;;;5032436;28;20485;-46
2022/01/10 00:55:25;;;;;;;28.00;17.53;;;6.70;99.90;;;;;;5033604;28;20455;-47
2022/01/10 00:57:51;;;;;;;27.70;16.63;;;6.50;99.90;;;;;;5053044;28;20424;-47
2022/01/10 01:00:19;;;;;;;21.93;15.60;;;6.70;99.90;;;;;;5053676;28;20442;-47
2022/01/10 01:02:46;;;;;;;25.27;13.77;;;6.70;99.90;;;;;;5053185;28;20415;-46
2022/01/10 01:05:17;;;;;;;23.83;14.67;;;6.70;99.90;;;;;;5053440;28;20434;-47
2022/01/10 01:07:43;;;;;;;22.23;14.40;;;6.70;99.90;;;;;;5053458;28;20544;-47
2022/01/10 01:10:43;;;;;;;23.30;14.50;;;6.80;99.90;;;;;;5035651;28;20942;-47
2022/01/10 01:13:23;;;;;;;20.93;13.97;;;6.80;99.90;;;;;;5053311;28;20443;-47
2022/01/10 01:16:08;;;;;;;28.87;16.20;;;6.80;99.90;;;;;;5053334;28;20432;-47
2022/01/10 01:19:05;;;;;;;21.20;15.40;;;6.80;99.90;;;;;;5052848;28;20510;-46
2022/01/10 01:24:16;;;;;;;30.80;15.70;;;6.80;99.90;;;;;;5035227;28;20535;-47
2022/01/10 01:26:45;;;;;;;22.30;13.03;;;6.90;99.90;;;;;;5053167;28;20416;-47
2022/01/10 01:29:17;;;;;;;20.17;13.50;;;6.90;99.90;;;;;;5034505;28;20980;-46
2022/01/10 01:31:45;;;;;;;22.60;14.20;;;6.90;99.90;;;;;;5053631;28;20403;-46
2022/01/10 01:34:14;;;;;;;22.70;13.60;;;6.90;99.90;;;;;;5035127;28;20479;-46
2022/01/10 01:36:40;;;;;;;26.13;14.20;;;6.90;99.90;;;;;;5035404;28;20431;-47
2022/01/10 01:39:17;;;;;;;26.03;14.90;;;6.90;99.90;;;;;;5052315;28;20463;-47
2022/01/10 01:41:45;;;;;;;20.63;14.60;;;6.90;99.90;;;;;;5034985;28;20539;-47
2022/01/10 01:44:14;;;;;;;22.90;14.83;;;6.90;99.90;;;;;;5034748;28;20499;-47
2022/01/10 01:46:42;;;;;;;21.80;14.30;;;6.90;99.90;;;;;;5052629;28;20506;-46
2022/01/10 01:49:09;;;;;;;21.97;13.20;;;6.90;99.90;;;;;;5034021;28;20460;-47
2022/01/10 01:51:36;;;;;;;20.77;13.20;;;6.90;99.90;;;;;;5052434;28;20900;-47
2022/01/10 01:54:04;;;;;;;29.23;15.03;;;6.90;99.90;;;;;;5050943;28;20475;-46
2022/01/10 01:56:31;;;;;;;22.20;14.30;;;6.90;99.90;;;;;;5051251;28;20458;-47
2022/01/10 01:58:58;;;;;;;28.43;13.37;;;6.90;99.90;;;;;;5033984;28;20478;-46
2022/01/10 02:01:26;;;;;;;24.77;13.20;;;6.90;99.90;;;;;;5034539;28;20518;-47
2022/01/10 02:03:54;;;;;;;17.10;12.60;;;6.90;99.90;;;;;;5034327;28;20448;-47
2022/01/10 02:06:26;;;;;;;28.53;11.87;;;6.80;99.90;;;;;;5034353;28;20484;-47
2022/01/10 02:08:53;;;;;;;17.87;12.47;;;6.80;99.90;;;;;;5033733;28;20444;-47
2022/01/10 02:11:20;;;;;;;21.40;11.53;;;6.80;99.90;;;;;;5034059;28;20447;-47
2022/01/10 02:13:46;;;;;;;17.60;11.17;;;6.80;99.90;;;;;;5034226;28;20477;-46
2022/01/10 02:16:39;;;;;;;22.93;11.27;;;6.80;99.90;;;;;;5034263;28;20454;-47
2022/01/10 02:19:07;;;;;;;22.43;11.87;;;6.80;99.90;;;;;;5033790;28;20481;-47
2022/01/10 02:21:35;;;;;;;23.10;12.20;;;6.80;99.90;;;;;;5051823;28;20512;-46
2022/01/10 02:24:03;;;;;;;19.43;11.90;;;6.80;99.90;;;;;;5034194;28;20429;-47
2022/01/10 02:26:31;;;;;;;22.60;13.03;;;6.80;99.90;;;;;;5033894;28;20419;-45
2022/01/10 02:28:58;;;;;;;22.40;13.30;;;6.80;99.90;;;;;;5051582;28;20430;-46
2022/01/10 02:31:25;;;;;;;23.43;16.90;;;6.80;99.90;;;;;;5033522;28;20447;-45
2022/01/10 02:33:56;;;;;;;23.70;16.57;;;6.80;99.90;;;;;;5051663;28;20784;-45
2022/01/10 02:36:25;;;;;;;31.53;17.10;;;6.80;99.90;;;;;;5033549;28;20448;-46
2022/01/10 02:38:55;;;;;;;24.90;16.70;;;6.80;99.90;;;;;;5051037;28;20461;-45
2022/01/10 02:41:26;;;;;;;29.30;15.80;;;6.80;99.90;;;;;;5051417;28;20784;-46
2022/01/10 02:43:55;;;;;;;23.37;15.70;;;6.80;99.90;;;;;;5033656;28;20477;-45
2022/01/10 02:46:23;;;;;;;27.37;16.33;;;6.70;99.90;;;;;;5033442;28;20463;-47
2022/01/10 02:48:50;;;;;;;24.60;14.70;;;6.70;99.90;;;;;;5033371;28;20484;-46
2022/01/10 02:51:17;;;;;;;35.20;23.40;;;6.70;99.90;;;;;;5030061;28;20562;-46
2022/01/10 02:53:45;;;;;;;28.53;17.80;;;6.80;99.90;;;;;;5013999;28;20429;-46
2022/01/10 02:56:13;;;;;;;19.80;14.27;;;6.80;99.90;;;;;;5020250;28;20995;-46
2022/01/10 02:58:41;;;;;;;25.30;14.90;;;6.80;99.90;;;;;;5033345;28;21047;-45
2022/01/10 03:01:08;;;;;;;22.67;12.90;;;6.80;99.90;;;;;;5032876;28;21067;-45
2022/01/10 03:03:35;;;;;;;21.00;13.50;;;6.70;99.90;;;;;;5033640;28;20435;-46
2022/01/10 03:06:03;;;;;;;26.70;14.97;;;6.80;99.90;;;;;;5051342;28;20948;-46
2022/01/10 03:08:31;;;;;;;28.40;12.03;;;6.80;99.90;;;;;;5051285;28;20452;-45
2022/01/10 03:11:02;;;;;;;18.63;12.90;;;6.80;99.90;;;;;;5033628;28;20961;-45
2022/01/10 03:13:30;;;;;;;18.43;11.50;;;6.80;99.90;;;;;;5033518;28;20452;-46
2022/01/10 03:15:57;;;;;;;24.57;12.47;;;6.80;99.90;;;;;;5051589;28;20909;-46
2022/01/10 03:18:24;;;;;;;23.27;12.60;;;6.80;99.90;;;;;;5051022;28;20468;-46
2022/01/10 03:20:50;;;;;;;20.87;11.83;;;6.80;99.90;;;;;;5033409;28;20793;-46
2022/01/10 03:23:17;;;;;;;24.93;11.53;;;6.80;99.90;;;;;;5033494;28;20438;-46
2022/01/10 03:25:45;;;;;;;27.93;10.43;;;6.80;99.90;;;;;;5033289;28;20462;-46
2022/01/10 03:28:13;;;;;;;22.33;11.73;;;6.80;99.90;;;;;;5032882;28;20452;-46
2022/01/10 03:30:42;;;;;;;18.53;10.97;;;6.80;99.90;;;;;;5033554;28;20449;-46
2022/01/10 03:33:09;;;;;;;21.50;12.00;;;6.80;99.90;;;;;;5033594;28;20515;-46
2022/01/10 03:35:37;;;;;;;20.30;11.97;;;6.80;99.90;;;;;;5033175;28;20855;-46
2022/01/10 03:38:07;;;;;;;18.23;10.60;;;6.80;99.90;;;;;;5033040;28;21017;-46
2022/01/10 03:40:35;;;;;;;22.30;10.90;;;6.80;99.90;;;;;;5033650;28;20492;-46
2022/01/10 03:43:06;;;;;;;15.23;11.10;;;6.90;99.90;;;;;;5033215;28;20554;-46
2022/01/10 03:45:33;;;;;;;23.80;11.53;;;6.80;99.90;;;;;;5033265;28;20457;-46
2022/01/10 03:48:01;;;;;;;21.27;12.77;;;6.80;99.90;;;;;;5032564;28;20451;-45
2022/01/10 03:50:29;;;;;;;24.70;13.23;;;6.90;99.90;;;;;;5033102;28;20514;-46
2022/01/10 03:52:56;;;;;;;20.30;13.00;;;6.80;99.90;;;;;;5029836;28;20428;-45
2022/01/10 03:55:23;;;;;;;17.17;12.77;;;6.80;99.90;;;;;;5013176;28;20444;-45
2022/01/10 03:57:51;;;;;;;30.63;15.77;;;6.80;99.90;;;;;;5032560;28;20451;-46
2022/01/10 04:00:18;;;;;;;21.33;13.17;;;6.80;99.90;;;;;;5033014;28;20460;-46
2022/01/10 04:02:51;;;;;;;22.10;15.83;;;6.80;99.90;;;;;;5050767;28;20455;-46
2022/01/10 04:05:24;;;;;;;22.57;12.63;;;6.80;99.90;;;;;;5033680;28;20930;-46
2022/01/10 04:07:51;;;;;;;22.13;13.27;;;6.80;99.90;;;;;;5032411;28;20532;-46
2022/01/10 04:10:17;;;;;;;17.87;12.37;;;6.80;99.90;;;;;;5051264;28;20503;-46
2022/01/10 04:12:44;;;;;;;20.70;11.73;;;6.80;99.90;;;;;;5035101;28;20430;-46
2022/01/10 04:15:11;;;;;;;27.60;14.30;;;6.90;99.90;;;;;;5036398;28;20458;-47
2022/01/10 04:17:38;;;;;;;21.63;11.67;;;6.90;99.90;;;;;;5053873;28;20439;-47
2022/01/10 04:20:06;;;;;;;18.20;10.17;;;6.80;99.90;;;;;;5054233;28;20472;-47
2022/01/10 04:22:34;;;;;;;17.07;10.70;;;6.80;99.90;;;;;;5036010;28;20446;-46
2022/01/10 04:25:01;;;;;;;20.77;10.33;;;6.80;99.90;;;;;;5054468;28;20502;-47
2022/01/10 04:27:31;;;;;;;14.57;9.47;;;6.80;99.90;;;;;;5036098;28;20561;-47
2022/01/10 04:29:59;;;;;;;15.80;9.67;;;6.80;99.90;;;;;;5035967;28;20980;-47
2022/01/10 04:32:28;;;;;;;13.67;9.23;;;6.80;99.90;;;;;;5035864;28;20452;-47
2022/01/10 04:34:55;;;;;;;18.07;10.70;;;6.80;99.90;;;;;;5035717;28;20554;-47
2022/01/10 04:37:22;;;;;;;21.50;10.47;;;6.80;99.90;;;;;;5036054;28;20423;-46
2022/01/10 04:39:49;;;;;;;18.50;10.60;;;6.80;99.90;;;;;;5053636;28;20415;-46
2022/01/10 04:42:17;;;;;;;18.90;10.33;;;6.80;99.90;;;;;;5036064;28;20448;-46
2022/01/10 04:44:44;;;;;;;23.17;11.63;;;6.80;99.90;;;;;;5036071;28;20784;-46
2022/01/10 04:47:11;;;;;;;27.80;11.40;;;6.80;99.90;;;;;;5053772;28;20453;-47
2022/01/10 04:49:59;;;;;;;27.03;10.50;;;6.90;99.90;;;;;;5036587;28;20454;-45
2022/01/10 04:52:24;;;;;;;17.00;10.27;;;6.80;99.90;;;;;;5033024;28;20449;-44
2022/01/10 04:54:52;;;;;;;22.33;11.50;;;6.80;99.90;;;;;;5034237;28;20451;-45
2022/01/10 04:57:19;;;;;;;19.93;12.40;;;6.80;99.90;;;;;;5048352;28;20459;-44
2022/01/10 04:59:47;;;;;;;27.37;12.97;;;6.90;99.90;;;;;;5035547;28;20493;-44
2022/01/10 05:02:13;;;;;;;26.57;13.33;;;6.80;99.90;;;;;;5035438;28;20919;-45
2022/01/10 05:04:40;;;;;;;26.77;12.00;;;6.90;99.90;;;;;;5053179;28;20429;-44
2022/01/10 05:07:07;;;;;;;18.20;11.03;;;6.90;99.90;;;;;;5035366;28;20501;-44
2022/01/10 05:09:36;;;;;;;18.33;10.67;;;6.90;99.90;;;;;;5035117;28;20443;-45
2022/01/10 05:12:09;;;;;;;21.70;10.67;;;6.90;99.90;;;;;;5035289;28;20510;-45
2022/01/10 05:14:35;;;;;;;20.00;10.90;;;6.90;99.90;;;;;;5052632;28;20873;-45
2022/01/10 05:17:02;;;;;;;21.07;11.40;;;6.80;99.90;;;;;;5035053;28;20431;-45
2022/01/10 05:19:29;;;;;;;18.20;10.07;;;6.90;99.90;;;;;;5034392;28;20575;-42
2022/01/10 05:21:56;;;;;;;18.97;10.47;;;6.90;99.90;;;;;;5052728;28;20728;-44
2022/01/10 05:24:23;;;;;;;24.97;11.63;;;6.90;99.90;;;;;;5034218;28;21036;-43
2022/01/10 05:26:50;;;;;;;23.30;10.93;;;6.90;99.90;;;;;;5034730;28;20882;-46
2022/01/10 05:29:21;;;;;;;20.80;10.73;;;6.90;99.90;;;;;;5034291;28;20842;-45
2022/01/10 05:31:48;;;;;;;26.30;12.00;;;6.80;99.90;;;;;;5034936;28;20972;-45
2022/01/10 05:34:47;;;;;;;18.60;10.47;;;6.80;99.90;;;;;;5030828;28;20759;-45
2022/01/10 05:37:14;;;;;;;22.80;12.10;;;6.80;99.90;;;;;;5034482;28;20451;-45
2022/01/10 05:39:40;;;;;;;23.20;12.03;;;6.80;99.90;;;;;;5052111;28;20443;-46
2022/01/10 05:42:07;;;;;;;24.37;12.93;;;6.80;99.90;;;;;;5034601;28;20988;-45
2022/01/10 05:44:36;;;;;;;20.03;13.63;;;6.80;99.90;;;;;;5035290;28;20436;-47
2022/01/10 05:47:03;;;;;;;19.23;13.43;;;6.80;99.90;;;;;;5034926;28;20983;-46
2022/01/10 05:49:34;;;;;;;18.83;12.60;;;6.80;99.90;;;;;;5033815;28;20474;-45
2022/01/10 05:52:02;;;;;;;28.20;13.93;;;6.90;99.90;;;;;;5031093;28;20453;-44
2022/01/10 05:54:32;;;;;;;23.13;11.70;;;6.80;99.90;;;;;;5014649;28;20433;-45
2022/01/10 05:57:01;;;;;;;20.90;11.70;;;6.80;99.90;;;;;;5034070;28;20475;-45
2022/01/10 05:59:28;;;;;;;24.40;13.23;;;6.80;99.90;;;;;;5033687;28;20439;-44
2022/01/10 06:01:58;;;;;;;18.20;11.00;;;6.80;99.90;;;;;;5034314;28;20457;-45
2022/01/10 06:04:26;;;;;;;26.33;13.10;;;6.80;99.90;;;;;;5033755;28;20457;-44
2022/01/10 06:06:53;;;;;;;14.60;11.73;;;6.80;99.90;;;;;;5033973;28;20452;-46
2022/01/10 06:09:20;;;;;;;17.37;11.47;;;6.80;99.90;;;;;;5033488;28;20442;-44
2022/01/10 06:11:47;;;;;;;20.57;13.07;;;6.80;99.90;;;;;;5033784;28;20428;-46
2022/01/10 06:14:15;;;;;;;21.43;12.47;;;6.80;99.90;;;;;;5033775;28;20464;-46
2022/01/10 06:16:42;;;;;;;19.67;12.07;;;6.80;99.90;;;;;;5033825;28;20886;-44
2022/01/10 06:19:11;;;;;;;26.60;12.80;;;6.80;99.90;;;;;;5033281;28;20858;-46
2022/01/10 06:21:38;;;;;;;22.30;11.47;;;6.80;99.90;;;;;;5034242;28;20534;-45
2022/01/10 06:24:05;;;;;;;18.37;10.73;;;6.80;99.90;;;;;;5033668;28;20561;-44
2022/01/10 06:26:32;;;;;;;21.40;10.07;;;6.80;99.90;;;;;;5033424;28;20444;-46
2022/01/10 06:28:59;;;;;;;18.90;10.40;;;6.80;99.90;;;;;;5033276;28;20478;-44
2022/01/10 06:31:26;;;;;;;18.50;11.30;;;6.80;99.90;;;;;;5033299;28;20555;-45
2022/01/10 06:34:01;;;;;;;19.43;11.20;;;6.80;99.90;;;;;;5032864;28;20421;-45
2022/01/10 06:36:29;;;;;;;16.13;9.93;;;6.80;99.90;;;;;;5032800;28;20542;-45
2022/01/10 06:38:57;;;;;;;21.23;12.23;;;6.80;99.90;;;;;;5033528;28;20464;-44
2022/01/10 06:41:24;;;;;;;19.90;11.40;;;6.70;99.90;;;;;;5032844;28;20450;-46
2022/01/10 06:43:51;;;;;;;16.53;11.37;;;6.70;99.90;;;;;;5033292;28;20445;-45
2022/01/10 06:46:19;;;;;;;22.93;13.73;;;6.80;99.90;;;;;;5032774;28;20823;-46
2022/01/10 06:48:45;;;;;;;16.27;10.70;;;6.80;99.90;;;;;;5051144;28;20442;-44
2022/01/10 06:51:12;;;;;;;20.77;11.97;;;6.80;99.90;;;;;;5029571;28;20815;-45
2022/01/10 06:53:43;;;;;;;15.47;10.57;;;6.80;99.90;;;;;;5029599;28;20420;-45
2022/01/10 06:56:10;;;;;;;23.00;11.83;;;6.80;99.90;;;;;;5032763;28;20563;-45
2022/01/10 06:58:39;;;;;;;17.20;10.90;;;6.90;99.90;;;;;;5032055;28;20480;-44
2022/01/10 07:01:09;;;;;;;24.33;10.60;;;6.80;99.90;;;;;;5033720;28;20461;-44
2022/01/10 07:03:36;;;;;;;17.37;11.17;;;6.90;99.90;;;;;;5033037;28;20979;-46
2022/01/10 07:06:15;;;;;;;19.27;10.67;;;6.80;99.90;;;;;;5032852;28;20818;-46
2022/01/10 07:08:43;;;;;;;19.97;9.47;;;6.80;99.90;;;;;;5032973;28;20469;-45
2022/01/10 07:11:11;;;;;;;20.03;10.27;;;6.80;99.90;;;;;;5032461;28;20479;-46
2022/01/10 07:13:40;;;;;;;21.33;9.97;;;6.80;99.90;;;;;;5032902;28;20456;-44
2022/01/10 07:16:09;;;;;;;19.17;8.87;;;6.80;99.90;;;;;;5032801;28;20462;-45
2022/01/10 07:18:36;;;;;;;20.73;9.67;;;6.80;99.90;;;;;;5032833;28;20515;-45
2022/01/10 07:21:12;;;;;;;21.40;10.03;;;6.80;99.90;;;;;;5032940;28;20442;-44
2022/01/10 07:23:38;;;;;;;18.83;10.70;;;6.80;99.90;;;;;;5032533;28;21029;-45
2022/01/10 07:26:06;;;;;;;27.77;10.87;;;6.80;99.90;;;;;;5050861;28;20813;-44
2022/01/10 07:28:33;;;;;;;17.47;11.03;;;6.80;99.90;;;;;;5050496;28;20439;-47
2022/01/10 07:31:00;;;;;;;18.87;10.77;;;6.80;99.90;;;;;;5050687;28;20416;-44
2022/01/10 07:33:26;;;;;;;21.93;10.30;;;6.90;99.90;;;;;;5050492;28;20445;-44
2022/01/10 07:35:53;;;;;;;20.90;13.27;;;6.90;99.90;;;;;;5050517;28;20459;-44
2022/01/10 07:38:20;;;;;;;21.30;12.80;;;6.90;99.90;;;;;;5050112;28;20438;-45
2022/01/10 07:40:46;;;;;;;19.20;12.60;;;6.90;99.90;;;;;;5050517;28;20492;-44
2022/01/10 07:43:14;;;;;;;31.40;20.33;;;6.90;99.90;;;;;;5050956;28;20460;-45
2022/01/10 07:45:49;;;;;;;22.13;15.73;;;6.90;99.90;;;;;;5033532;28;20426;-44
2022/01/10 07:48:17;;;;;;;26.10;16.57;;;6.90;99.90;;;;;;5053553;28;20830;-46
2022/01/10 07:50:44;;;;;;;41.57;23.53;;;7.00;99.90;;;;;;5054074;28;21018;-45
2022/01/10 07:53:10;;;;;;;24.63;15.97;;;7.00;99.90;;;;;;5054230;28;20892;-46
2022/01/10 07:55:37;;;;;;;23.30;15.40;;;7.00;99.90;;;;;;5054131;28;20492;-45
2022/01/10 07:58:03;;;;;;;25.23;16.30;;;7.00;99.90;;;;;;5053641;28;20439;-47
2022/01/10 08:00:31;;;;;;;23.87;14.63;;;7.00;99.90;;;;;;5054453;28;20407;-46
2022/01/10 08:02:58;;;;;;;25.30;14.67;;;7.00;99.90;;;;;;5053872;28;20433;-46
2022/01/10 08:05:25;;;;;;;22.50;14.30;;;7.00;99.90;;;;;;5054085;28;20412;-45
2022/01/10 08:07:51;;;;;;;30.40;15.30;;;7.00;99.90;;;;;;5053341;28;20452;-45
2022/01/10 08:10:18;;;;;;;31.50;18.87;;;7.00;99.90;;;;;;5054022;28;20418;-47
2022/01/10 08:12:44;;;;;;;29.47;16.93;;;7.00;99.90;;;;;;5035963;28;20423;-45
2022/01/10 08:15:11;;;;;;;29.67;17.70;;;7.00;99.90;;;;;;5054283;28;20861;-45
2022/01/10 08:17:39;;;;;;;27.70;15.73;;;6.90;99.90;;;;;;5052710;28;20459;-48
2022/01/10 08:20:07;;;;;;;30.33;15.70;;;6.90;99.90;;;;;;5053824;28;20418;-48
2022/01/10 08:22:34;;;;;;;27.13;14.83;;;6.90;99.90;;;;;;5053784;28;20960;-46
2022/01/10 08:25:00;;;;;;;25.23;14.63;;;6.90;99.90;;;;;;5053730;28;20481;-46
2022/01/10 08:27:27;;;;;;;27.10;15.30;;;6.90;99.90;;;;;;5053243;28;20429;-45
2022/01/10 08:29:54;;;;;;;24.70;17.17;;;6.90;99.90;;;;;;5053396;28;20503;-46
2022/01/10 08:32:20;;;;;;;25.03;16.30;;;6.90;99.90;;;;;;5053124;28;20515;-46
2022/01/10 08:34:48;;;;;;;23.97;15.90;;;6.90;99.90;;;;;;5053054;28;20419;-46
2022/01/10 08:37:15;;;;;;;29.50;15.90;;;7.00;99.90;;;;;;5034820;28;20780;-46
2022/01/10 08:39:42;;;;;;;29.50;17.20;;;7.00;99.90;;;;;;5052971;28;20439;-46
2022/01/10 08:42:09;;;;;;;21.23;15.40;;;7.00;99.90;;;;;;5053248;28;20444;-47
2022/01/10 08:44:36;;;;;;;24.23;15.63;;;7.00;99.90;;;;;;5052993;28;20950;-46
2022/01/10 08:47:03;;;;;;;33.83;19.43;;;7.10;99.90;;;;;;5053209;28;20772;-44
2022/01/10 08:49:29;;;;;;;29.93;16.90;;;7.00;99.90;;;;;;5049532;28;20851;-45
2022/01/10 08:51:57;;;;;;;31.80;18.10;;;7.00;99.90;;;;;;5052462;28;20423;-44
2022/01/10 08:54:24;;;;;;;28.30;16.27;;;7.00;99.90;;;;;;5052935;28;20772;-45
2022/01/10 08:56:52;;;;;;;34.33;17.50;;;7.10;99.90;;;;;;5052338;28;20792;-44
2022/01/10 08:59:19;;;;;;;26.23;16.87;;;7.00;99.90;;;;;;5051983;28;20431;-44
2022/01/10 09:01:46;;;;;;;33.03;18.90;;;7.10;99.90;;;;;;5053170;28;20409;-45
2022/01/10 09:04:15;;;;;;;29.97;17.97;;;7.10;99.90;;;;;;5053102;28;20792;-44
2022/01/10 09:06:44;;;;;;;28.20;17.20;;;7.10;99.90;;;;;;5052776;28;20838;-44
2022/01/10 09:09:14;;;;;;;30.73;17.77;;;7.10;99.90;;;;;;5052630;28;20876;-43
2022/01/10 09:11:41;;;;;;;27.40;16.30;;;7.10;99.90;;;;;;5052893;28;20426;-44
2022/01/10 09:14:08;;;;;;;33.13;16.77;;;7.10;99.90;;;;;;5034507;28;20452;-47
2022/01/10 09:16:36;;;;;;;30.37;16.47;;;7.10;99.90;;;;;;5052541;28;20503;-44
2022/01/10 09:19:03;;;;;;;28.13;16.83;;;7.10;99.90;;;;;;5051772;28;20491;-43
2022/01/10 09:21:29;;;;;;;26.63;15.60;;;7.20;99.90;;;;;;5052804;28;20414;-46
2022/01/10 09:23:56;;;;;;;25.50;14.67;;;7.20;99.90;;;;;;5052512;28;20448;-45
2022/01/10 09:26:24;;;;;;;22.30;14.03;;;7.20;99.90;;;;;;5052549;28;20433;-44
2022/01/10 09:28:51;;;;;;;27.90;14.03;;;7.10;99.90;;;;;;5052181;28;20456;-45
2022/01/10 09:31:18;;;;;;;16.13;12.03;;;7.20;99.90;;;;;;5052869;28;20453;-46
2022/01/10 09:33:52;;;;;;;20.40;12.70;;;7.10;99.90;;;;;;5052337;28;20444;-44
2022/01/10 09:36:19;;;;;;;26.43;12.57;;;7.10;99.90;;;;;;5052043;28;20487;-43
2022/01/10 09:38:45;;;;;;;30.43;13.73;;;7.10;99.90;;;;;;5034297;28;20454;-45
2022/01/10 09:41:12;;;;;;;22.80;11.43;;;7.10;99.90;;;;;;5052109;28;20428;-46
2022/01/10 09:43:41;;;;;;;20.90;12.50;;;7.10;99.90;;;;;;5052422;28;20445;-45
2022/01/10 09:46:08;;;;;;;25.43;11.67;;;7.10;99.90;;;;;;5051943;28;20407;-43
2022/01/10 09:48:35;;;;;;;20.90;12.80;;;7.10;99.90;;;;;;5051507;28;20842;-46
2022/01/10 09:51:01;;;;;;;22.00;10.90;;;7.10;99.90;;;;;;5051385;28;20455;-43
2022/01/10 09:53:28;;;;;;;15.67;10.47;;;7.10;99.90;;;;;;5052134;28;20441;-45
2022/01/10 09:55:55;;;;;;;16.90;9.87;;;7.10;99.90;;;;;;5051619;28;20788;-44
2022/01/10 09:58:22;;;;;;;21.97;11.43;;;7.10;99.90;;;;;;5051830;28;20461;-45
2022/01/10 10:00:54;;;;;;;19.70;12.47;;;7.10;99.90;;;;;;5052510;28;20482;-45
2022/01/10 10:03:22;;;;;;;16.13;10.90;;;7.10;99.90;;;;;;5052333;28;20428;-44
2022/01/10 10:05:52;;;;;;;19.27;11.43;;;7.10;99.90;;;;;;5052540;28;20517;-45
2022/01/10 10:08:20;;;;;;;17.50;11.20;;;7.10;99.90;;;;;;5051933;28;21021;-43
2022/01/10 10:10:46;;;;;;;19.07;10.93;;;7.10;99.90;;;;;;5052863;28;20412;-43
2022/01/10 10:13:15;;;;;;;16.23;11.23;;;7.10;99.90;;;;;;5052869;28;20434;-43
2022/01/10 10:15:44;;;;;;;15.20;10.70;;;7.10;99.90;;;;;;5053066;28;20956;-44
2022/01/10 10:18:13;;;;;;;16.13;10.77;;;7.10;99.90;;;;;;5050898;28;20849;-43
2022/01/10 10:20:41;;;;;;;21.37;11.53;;;7.10;99.90;;;;;;5051518;28;20960;-43
2022/01/10 10:23:11;;;;;;;17.07;11.00;;;7.20;99.90;;;;;;5051355;28;20487;-44
2022/01/10 10:25:37;;;;;;;20.50;10.37;;;7.20;99.90;;;;;;5052083;28;20449;-45
2022/01/10 10:28:04;;;;;;;19.00;10.13;;;7.20;99.90;;;;;;5051045;28;20454;-46
2022/01/10 10:30:32;;;;;;;18.13;11.70;;;7.20;99.90;;;;;;5051384;28;20495;-47
2022/01/10 10:33:13;;;;;;;15.57;10.60;;;7.20;99.90;;;;;;5051391;28;20445;-45
2022/01/10 10:35:41;;;;;;;22.50;11.60;;;7.20;99.90;;;;;;5051465;28;20519;-43
2022/01/10 10:38:07;;;;;;;17.80;9.90;;;7.20;99.90;;;;;;5050551;28;20493;-43
2022/01/10 10:40:40;;;;;;;19.90;11.07;;;7.20;99.90;;;;;;5051223;28;20815;-44
2022/01/10 10:43:08;;;;;;;20.40;11.00;;;7.30;99.90;;;;;;5051429;28;20518;-43
2022/01/10 10:45:35;;;;;;;17.53;9.80;;;7.30;99.90;;;;;;5050571;28;20406;-44
2022/01/10 10:48:06;;;;;;;18.03;11.90;;;7.30;99.90;;;;;;5065938;22;20469;-50
2022/01/10 10:50:42;;;;;;;15.53;11.17;;;7.30;99.90;;;;;;5030728;28;20442;-50
2022/01/10 10:53:10;;;;;;;19.13;12.60;;;7.30;99.90;;;;;;5030852;28;20449;-51
2022/01/10 10:55:39;;;;;;;18.87;11.43;;;7.30;99.90;;;;;;5031048;28;20448;-51
2022/01/10 10:58:06;;;;;;;20.10;11.43;;;7.40;99.90;;;;;;5030813;28;20472;-51
2022/01/10 11:00:33;;;;;;;13.83;11.20;;;7.40;99.90;;;;;;5030723;28;20451;-51
2022/01/10 11:03:00;;;;;;;17.03;10.97;;;7.40;99.90;;;;;;5031264;28;20442;-51
2022/01/10 11:05:27;;;;;;;20.37;10.77;;;7.40;99.90;;;;;;5031349;28;20437;-50
2022/01/10 11:07:55;;;;;;;16.00;10.30;;;7.40;99.90;;;;;;5030853;28;20526;-51
2022/01/10 11:10:24;;;;;;;15.10;10.20;;;7.40;99.90;;;;;;5031156;28;20468;-51
2022/01/10 11:12:54;;;;;;;17.20;10.90;;;7.40;99.90;;;;;;5031055;28;20453;-51
2022/01/10 11:15:21;;;;;;;16.23;10.27;;;7.40;99.90;;;;;;5031101;28;20438;-51
2022/01/10 11:17:48;;;;;;;14.67;9.50;;;7.40;99.90;;;;;;5030923;28;20477;-51
2022/01/10 11:20:17;;;;;;;17.57;11.03;;;7.40;99.90;;;;;;5031068;28;20469;-51
2022/01/10 11:22:45;;;;;;;13.93;11.07;;;7.50;99.90;;;;;;5034745;28;20459;-51
2022/01/10 11:25:25;;;;;;;12.80;9.03;;;7.40;99.90;;;;;;5034934;28;20438;-51
2022/01/10 11:27:54;;;;;;;10.23;8.47;;;7.50;99.90;;;;;;5034572;28;20553;-51
2022/01/10 11:30:33;;;;;;;14.90;9.03;;;7.50;99.90;;;;;;5035007;28;20771;-52
2022/01/10 11:33:04;;;;;;;11.40;8.60;;;7.50;99.90;;;;;;5034442;28;20446;-52
2022/01/10 11:35:33;;;;;;;12.87;9.37;;;7.50;99.90;;;;;;5034907;28;20774;-52
2022/01/10 11:38:00;;;;;;;12.77;9.33;;;7.50;99.90;;;;;;5033847;28;20480;-52
2022/01/10 11:40:28;;;;;;;11.43;9.20;;;7.50;99.90;;;;;;5034262;28;20625;-52
2022/01/10 11:42:58;;;;;;;11.40;7.17;;;7.60;99.90;;;;;;5034189;28;20439;-51
2022/01/10 11:45:27;;;;;;;11.30;8.40;;;7.60;99.90;;;;;;5035134;28;20429;-51
2022/01/10 11:48:14;;;;;;;13.20;7.53;;;7.60;99.90;;;;;;5034156;28;20432;-51
2022/01/10 11:50:43;;;;;;;11.87;6.83;;;7.60;99.90;;;;;;5033971;28;20426;-51
2022/01/10 11:53:09;;;;;;;12.30;9.30;;;7.50;99.90;;;;;;5034504;28;20465;-51
2022/01/10 11:55:52;;;;;;;8.37;6.10;;;7.60;99.90;;;;;;5034191;28;20439;-51
2022/01/10 11:58:22;;;;;;;9.23;7.60;;;7.60;99.90;;;;;;5033823;28;20461;-51
2022/01/10 12:00:50;;;;;;;11.43;6.90;;;7.50;99.90;;;;;;5016606;28;20506;-52
2022/01/10 12:03:19;;;;;;;9.30;6.40;;;7.50;99.90;;;;;;5034197;28;20876;-52
2022/01/10 12:05:46;;;;;;;10.40;6.40;;;7.60;99.90;;;;;;5033899;28;20453;-51
2022/01/10 12:08:12;;;;;;;10.13;6.23;;;7.60;99.90;;;;;;5033747;28;20458;-51
2022/01/10 12:10:40;;;;;;;14.07;6.00;;;7.60;99.90;;;;;;5033732;28;20409;-52
2022/01/10 12:13:10;;;;;;;7.43;6.17;;;7.60;99.90;;;;;;5016249;28;20453;-52
2022/01/10 12:15:38;;;;;;;9.57;6.87;;;7.70;99.90;;;;;;5033487;28;20835;-52
2022/01/10 12:18:06;;;;;;;7.83;6.40;;;7.60;99.90;;;;;;5033437;28;20493;-52
2022/01/10 12:20:33;;;;;;;6.77;5.20;;;7.60;99.90;;;;;;5033518;28;20436;-52
2022/01/10 12:23:00;;;;;;;9.80;5.43;;;7.70;99.90;;;;;;5033777;28;20442;-52
2022/01/10 12:25:28;;;;;;;7.73;5.50;;;7.60;99.90;;;;;;5033774;28;20446;-52
2022/01/10 12:28:00;;;;;;;7.63;5.00;;;7.70;99.90;;;;;;5033396;28;20533;-52
2022/01/10 12:30:27;;;;;;;7.93;5.57;;;7.70;99.90;;;;;;5033714;28;20457;-52
2022/01/10 12:32:54;;;;;;;11.57;4.90;;;7.70;99.90;;;;;;5032579;28;20821;-52
2022/01/10 12:35:21;;;;;;;8.40;5.70;;;7.70;99.90;;;;;;5033541;28;20533;-52
2022/01/10 12:37:48;;;;;;;7.43;5.10;;;7.70;99.90;;;;;;5032865;28;20573;-52
2022/01/10 12:40:15;;;;;;;7.60;4.93;;;7.70;99.90;;;;;;5032946;28;20462;-52
2022/01/10 12:42:48;;;;;;;8.83;5.47;;;7.70;99.90;;;;;;5033396;28;20435;-52
2022/01/10 12:45:16;;;;;;;9.70;5.80;;;7.70;99.90;;;;;;5032913;28;20460;-52
2022/01/10 12:47:45;;;;;;;10.43;5.37;;;7.60;99.90;;;;;;5033639;28;20398;-52